createdAt,value
2022-12-19T07:10:13.057Z,7.90
2022-12-19T07:13:02.582Z,7.90
2022-12-19T07:15:55.550Z,8.00
2022-12-19T07:18:44.765Z,8.00
2022-12-19T07:21:33.764Z,7.80
2022-12-19T07:24:22.919Z,7.60
2022-12-19T07:27:14.292Z,7.30
2022-12-19T07:30:03.851Z,7.30
2022-12-19T07:32:53.025Z,7.20
2022-12-19T07:35:42.712Z,7.30
2022-12-19T07:38:31.716Z,7.50
2022-12-19T07:41:20.932Z,7.50
2022-12-19T07:44:13.402Z,7.50
2022-12-19T07:47:02.547Z,7.50
2022-12-19T07:49:51.758Z,7.50
2022-12-19T07:52:45.092Z,7.40
2022-12-19T07:55:34.088Z,7.40
2022-12-19T07:58:23.165Z,7.20
2022-12-19T08:01:13.999Z,7.20
2022-12-19T08:04:03.276Z,7.20
2022-12-19T08:06:52.298Z,7.40
2022-12-19T08:09:41.829Z,7.50
2022-12-19T08:12:30.553Z,7.50
2022-12-19T08:15:19.603Z,7.70
2022-12-19T08:18:09.703Z,7.80
2022-12-19T08:20:58.617Z,7.80
2022-12-19T08:23:48.092Z,7.90
2022-12-19T08:29:33.332Z,8.00
2022-12-19T08:32:22.999Z,8.10
2022-12-19T08:35:14.080Z,8.10
2022-12-19T08:38:03.738Z,8.20
2022-12-19T08:40:55.444Z,8.10
2022-12-19T08:43:44.868Z,8.20
2022-12-19T08:46:34.284Z,8.20
2022-12-19T08:49:23.702Z,8.10
2022-12-19T08:52:13.927Z,8.10
2022-12-19T08:55:04.148Z,8.20
2022-12-19T08:57:53.383Z,8.10
2022-12-19T09:00:42.681Z,8.00
2022-12-19T09:04:01.548Z,8.10
2022-12-19T09:06:40.745Z,8.10
2022-12-19T09:09:31.454Z,8.10
2022-12-19T09:12:21.465Z,8.10
2022-12-19T09:15:11.691Z,8.20
2022-12-19T09:18:01.100Z,8.10
2022-12-19T09:20:50.143Z,8.10
2022-12-19T09:23:38.949Z,8.10
2022-12-19T09:26:29.683Z,8.10
2022-12-19T09:29:24.751Z,8.10
2022-12-19T09:32:15.924Z,8.10
2022-12-19T09:35:05.470Z,8.10
2022-12-19T09:37:59.862Z,8.10
2022-12-19T09:41:00.892Z,8.20
2022-12-19T09:44:03.165Z,8.10
2022-12-19T09:46:55.941Z,8.10
2022-12-19T09:49:46.852Z,8.10
2022-12-19T09:52:40.566Z,8.10
2022-12-19T09:55:35.186Z,8.10
2022-12-19T09:58:33.848Z,8.10
2022-12-19T10:01:28.571Z,8.10
2022-12-19T10:04:18.779Z,8.20
2022-12-19T10:07:33.163Z,8.20
2022-12-19T10:12:36.334Z,8.20
2022-12-19T10:13:55.907Z,8.10
2022-12-19T10:17:23.581Z,8.10
2022-12-19T10:20:20.911Z,8.20
2022-12-19T10:23:29.208Z,8.20
2022-12-19T10:26:21.139Z,8.20
2022-12-19T10:29:35.670Z,8.20
2022-12-19T10:32:38.408Z,8.20
2022-12-19T10:35:34.151Z,8.20
2022-12-19T10:38:28.541Z,8.20
2022-12-19T10:41:22.141Z,8.10
2022-12-19T10:44:12.282Z,8.00
2022-12-19T10:47:01.613Z,8.10
2022-12-19T10:49:55.202Z,8.00
2022-12-19T10:52:52.229Z,7.90
2022-12-19T10:55:44.699Z,8.10
2022-12-19T10:58:36.347Z,8.10
2022-12-19T11:01:27.833Z,8.20
2022-12-19T11:04:26.736Z,8.20
2022-12-19T11:11:20.778Z,8.30
2022-12-19T11:21:06.113Z,8.20
2022-12-19T11:23:15.731Z,8.20
2022-12-19T11:29:26.151Z,8.30
2022-12-19T11:29:33.806Z,7.90
2022-12-19T11:30:39.085Z,8.00
2022-12-19T11:33:13.097Z,8.20
2022-12-19T11:36:05.389Z,8.30
2022-12-19T11:38:56.192Z,8.30
2022-12-19T11:41:51.585Z,8.30
2022-12-19T11:44:47.690Z,8.30
2022-12-19T11:47:42.000Z,8.00
2022-12-19T11:50:33.578Z,7.80
2022-12-19T11:53:30.341Z,7.80
2022-12-19T11:56:24.909Z,7.80
2022-12-19T11:59:18.860Z,7.90
2022-12-19T12:02:29.815Z,8.10
2022-12-19T12:05:34.346Z,8.20
2022-12-19T12:11:31.626Z,8.30
2022-12-19T12:17:01.864Z,8.30
2022-12-19T12:29:21.029Z,8.40
2022-12-19T12:31:04.574Z,8.30
2022-12-19T12:31:07.145Z,8.30
2022-12-19T12:31:50.787Z,8.30
2022-12-19T12:32:06.049Z,8.40
2022-12-19T12:35:22.426Z,8.40
2022-12-19T12:39:04.923Z,8.40
2022-12-19T12:42:07.487Z,8.40
2022-12-19T12:45:00.411Z,8.50
2022-12-19T12:47:52.725Z,8.40
2022-12-19T12:50:43.615Z,8.40
2022-12-19T12:53:39.602Z,8.40
2022-12-19T12:56:28.790Z,8.50
2022-12-19T12:59:24.912Z,8.50
2022-12-19T13:02:22.084Z,8.50
2022-12-19T13:05:35.279Z,8.60
2022-12-19T13:08:40.949Z,8.60
2022-12-19T15:05:46.987Z,8.50
2022-12-19T15:10:07.798Z,8.50
2022-12-19T15:14:47.460Z,8.30
2022-12-19T15:15:21.977Z,8.30
2022-12-19T15:18:22.301Z,8.30
2022-12-19T15:21:15.226Z,8.30
2022-12-19T15:24:05.031Z,8.40
2022-12-19T15:26:55.136Z,8.50
2022-12-19T15:29:44.976Z,8.50
2022-12-19T15:32:34.014Z,8.60
2022-12-19T15:35:23.214Z,8.70
2022-12-19T15:38:13.697Z,8.70
2022-12-19T15:41:08.819Z,8.70
2022-12-19T15:44:06.830Z,8.70
2022-12-19T15:46:56.402Z,8.70
2022-12-19T15:49:45.442Z,8.70
2022-12-19T15:52:34.521Z,8.70
2022-12-19T15:55:28.324Z,8.70
2022-12-19T15:58:21.452Z,8.70
2022-12-19T16:01:12.637Z,8.80
2022-12-19T16:04:03.564Z,8.80
2022-12-19T16:06:52.510Z,8.80
2022-12-19T16:09:41.844Z,8.70
2022-12-19T16:12:37.050Z,8.70
2022-12-19T16:15:28.054Z,8.70
2022-12-19T16:18:17.449Z,8.80
2022-12-19T16:21:06.371Z,8.70
2022-12-19T16:23:56.397Z,8.70
2022-12-19T16:26:46.090Z,8.70
2022-12-19T16:29:40.868Z,8.70
2022-12-19T16:32:30.890Z,8.70
2022-12-19T16:35:40.255Z,8.70
2022-12-19T16:38:32.880Z,8.70
2022-12-19T16:41:26.285Z,8.70
2022-12-19T16:44:19.524Z,8.70
2022-12-19T16:47:14.941Z,8.70
2022-12-19T16:50:08.469Z,8.70
2022-12-19T16:52:58.372Z,8.70
2022-12-19T16:55:50.665Z,8.70
2022-12-19T16:58:43.168Z,8.70
2022-12-19T17:01:32.563Z,8.70
2022-12-19T17:04:25.944Z,8.80
2022-12-19T17:07:16.695Z,8.80
2022-12-19T17:10:06.279Z,8.80
2022-12-19T17:12:56.225Z,8.80
2022-12-19T17:15:49.811Z,8.80
2022-12-19T17:18:45.000Z,8.70
2022-12-19T17:21:35.049Z,8.70
2022-12-19T17:24:24.323Z,8.70
2022-12-19T17:27:13.503Z,8.70
2022-12-19T17:30:02.528Z,8.80
2022-12-19T17:32:54.275Z,8.80
2022-12-19T17:35:43.707Z,8.80
2022-12-19T17:38:33.949Z,8.80
2022-12-19T17:41:23.295Z,8.80
2022-12-19T17:44:12.230Z,8.80
2022-12-19T17:47:01.917Z,8.80
2022-12-19T17:49:51.152Z,8.80
2022-12-19T17:52:40.472Z,8.80
2022-12-19T17:55:32.116Z,8.80
2022-12-19T17:58:21.988Z,8.80
2022-12-19T18:01:19.894Z,8.80
2022-12-19T18:04:12.832Z,8.80
2022-12-19T18:07:02.751Z,8.80
2022-12-19T18:09:52.229Z,8.80
2022-12-19T18:12:42.778Z,8.80
2022-12-19T18:15:31.770Z,8.80
2022-12-19T18:18:29.335Z,8.80
2022-12-19T18:21:20.376Z,8.80
2022-12-19T18:24:12.073Z,8.80
2022-12-19T18:27:00.905Z,8.80
2022-12-19T18:29:51.840Z,8.80
2022-12-19T18:32:41.129Z,8.80
2022-12-19T18:35:33.939Z,8.80
2022-12-19T18:38:24.983Z,8.80
2022-12-19T18:41:14.444Z,8.80
2022-12-19T18:44:04.703Z,8.80
2022-12-19T18:46:55.790Z,8.80
2022-12-19T18:49:45.271Z,8.80
2022-12-19T18:52:34.562Z,8.90
2022-12-19T18:55:25.653Z,8.80
2022-12-19T18:58:14.591Z,8.80
2022-12-19T19:01:05.718Z,8.80
2022-12-19T19:03:59.292Z,8.80
2022-12-19T19:06:52.190Z,8.80
2022-12-19T19:09:42.081Z,8.80
2022-12-19T19:12:30.994Z,8.80
2022-12-19T19:15:21.182Z,8.80
2022-12-19T19:18:10.923Z,8.80
2022-12-19T19:21:02.899Z,8.80
2022-12-19T19:23:57.516Z,8.90
2022-12-19T19:26:46.217Z,8.90
2022-12-19T19:29:34.991Z,9.00
2022-12-19T19:32:24.141Z,9.00
2022-12-19T19:35:15.871Z,9.00
2022-12-19T19:38:08.617Z,9.00
2022-12-19T19:40:58.759Z,9.00
2022-12-19T19:43:48.287Z,8.90
2022-12-19T19:46:37.621Z,8.90
2022-12-19T19:49:27.377Z,8.90
2022-12-19T19:52:16.527Z,8.90
2022-12-19T19:55:08.189Z,8.90
2022-12-19T19:57:57.649Z,8.80
2022-12-19T20:00:46.474Z,8.70
2022-12-19T20:03:35.824Z,8.70
2022-12-19T20:06:24.789Z,8.80
2022-12-19T20:09:13.596Z,8.80
2022-12-19T20:12:04.227Z,8.80
2022-12-19T20:14:53.334Z,8.80
2022-12-19T20:17:42.636Z,8.80
2022-12-19T20:20:34.498Z,8.80
2022-12-19T20:23:23.618Z,8.80
2022-12-19T20:26:13.393Z,8.80
2022-12-19T20:29:04.322Z,8.70
2022-12-19T20:31:56.856Z,8.70
2022-12-19T20:34:46.674Z,8.80
2022-12-19T20:37:35.727Z,8.80
2022-12-19T20:40:25.447Z,8.80
2022-12-19T20:43:14.795Z,8.80
2022-12-19T20:46:07.339Z,8.80
2022-12-19T20:48:56.687Z,8.80
2022-12-19T20:51:49.552Z,8.80
2022-12-19T20:54:38.831Z,8.80
2022-12-19T20:57:30.403Z,8.80
2022-12-19T21:00:20.969Z,8.80
